createdAt,value
2023-04-28T00:01:10.222Z,100560.19
2023-04-28T00:06:13.952Z,100553.03
2023-04-28T00:11:17.450Z,100556.09
2023-04-28T00:16:23.745Z,100553.00
2023-04-28T00:21:28.999Z,100550.72
2023-04-28T00:26:32.501Z,100539.91
2023-04-28T00:31:37.837Z,100537.63
2023-04-28T00:36:41.394Z,100532.75
2023-04-28T00:41:45.838Z,100531.28
2023-04-28T00:46:52.195Z,100525.09
2023-04-28T00:51:56.349Z,100520.28
2023-04-28T00:57:00.960Z,100518.13
2023-04-28T01:02:07.977Z,100519.31
2023-04-28T01:07:13.100Z,100513.25
2023-04-28T01:12:17.951Z,100500.66
2023-04-28T01:17:23.232Z,100496.50
2023-04-28T01:22:26.844Z,100495.91
2023-04-28T01:27:36.778Z,100488.91
2023-04-28T01:32:40.590Z,100475.59
2023-04-28T01:37:44.903Z,100477.50
2023-04-28T01:42:49.813Z,100483.28
2023-04-28T01:47:53.029Z,100476.31
2023-04-28T01:52:57.802Z,100468.91
2023-04-28T01:58:04.289Z,100473.28
2023-04-28T02:03:07.748Z,100458.69
2023-04-28T02:08:12.479Z,100442.75
2023-04-28T02:13:18.674Z,100445.78
2023-04-28T02:18:22.679Z,100443.06
2023-04-28T02:23:26.320Z,100436.81
2023-04-28T02:28:31.393Z,100429.00
2023-04-28T02:33:35.398Z,100419.53
2023-04-28T02:38:38.945Z,100413.69
2023-04-28T02:43:44.422Z,100419.03
2023-04-28T02:48:48.111Z,100414.41
2023-04-28T02:53:52.048Z,100411.63
2023-04-28T02:58:57.085Z,100410.94
2023-04-28T03:04:00.764Z,100404.47
2023-04-28T03:09:05.007Z,100410.06
2023-04-28T03:14:09.827Z,100398.91
2023-04-28T03:19:13.612Z,100396.78
2023-04-28T03:24:17.751Z,100379.59
2023-04-28T03:29:25.718Z,100366.00
2023-04-28T03:34:29.317Z,100368.22
2023-04-28T03:39:34.820Z,100364.91
2023-04-28T03:44:40.378Z,100344.06
2023-04-28T03:49:44.226Z,100341.78
2023-04-28T03:54:47.915Z,100324.88
2023-04-28T03:59:53.177Z,100324.75
2023-04-28T04:04:57.044Z,100334.72
2023-04-28T04:10:03.916Z,100322.19
2023-04-28T04:15:11.318Z,100322.66
2023-04-28T04:20:15.036Z,100323.03
2023-04-28T04:25:23.512Z,100317.38
2023-04-28T04:30:28.759Z,100313.97
2023-04-28T04:35:34.413Z,100305.19
2023-04-28T04:40:38.398Z,100299.53
2023-04-28T04:45:43.596Z,100298.25
2023-04-28T04:50:47.105Z,100290.63
2023-04-28T04:55:52.775Z,100278.91
2023-04-28T05:00:57.968Z,100286.38
2023-04-28T05:06:04.233Z,100284.09
2023-04-28T05:11:10.257Z,100283.63
2023-04-28T05:16:27.035Z,100279.47
2023-04-28T05:21:30.574Z,100290.63
2023-04-28T05:26:37.833Z,100285.94
2023-04-28T05:31:55.501Z,100273.91
2023-04-28T05:36:59.456Z,100262.75
2023-04-28T05:42:07.352Z,100263.56
2023-04-28T05:47:15.106Z,100254.72
2023-04-28T05:52:21.342Z,100246.47
2023-04-28T05:57:24.687Z,100252.13
2023-04-28T06:02:33.931Z,100248.78
2023-04-28T06:07:37.557Z,100240.81
2023-04-28T06:12:40.900Z,100244.91
2023-04-28T06:17:45.959Z,100233.09
2023-04-28T06:22:49.451Z,100237.09
2023-04-28T06:27:53.606Z,100235.09
2023-04-28T06:33:00.305Z,100231.00
2023-04-28T06:38:04.927Z,100229.09
2023-04-28T06:43:08.465Z,100224.16
2023-04-28T06:48:15.520Z,100222.19
2023-04-28T06:53:23.141Z,100216.53
2023-04-28T06:58:27.046Z,100216.66
2023-04-28T07:03:35.100Z,100200.59
2023-04-28T07:08:39.186Z,100202.59
2023-04-28T07:13:42.839Z,100199.78
2023-04-28T07:18:47.820Z,100200.09
2023-04-28T07:23:51.937Z,100189.38
2023-04-28T07:28:55.417Z,100189.38
2023-04-28T07:34:13.295Z,100178.44
2023-04-28T07:39:17.028Z,100187.06
2023-04-28T07:44:20.779Z,100190.69
2023-04-28T07:49:26.362Z,100183.63
2023-04-28T07:54:29.666Z,100179.38
2023-04-28T07:59:33.690Z,100172.28
2023-04-28T08:04:40.120Z,100158.13
2023-04-28T08:09:47.367Z,100157.41
2023-04-28T08:14:50.953Z,100162.63
2023-04-28T08:19:56.279Z,100159.63
2023-04-28T08:25:00.212Z,100171.41
2023-04-28T08:30:04.689Z,100168.19
2023-04-28T08:35:11.941Z,100170.41
2023-04-28T08:40:15.599Z,100172.34
2023-04-28T08:45:18.970Z,100166.78
2023-04-28T08:50:25.005Z,100181.16
2023-04-28T08:55:28.911Z,100179.13
2023-04-28T09:00:33.355Z,100186.72
2023-04-28T09:05:38.243Z,100191.84
2023-04-28T09:10:43.201Z,100178.13
2023-04-28T09:15:46.555Z,100171.22
2023-04-28T09:20:52.268Z,100173.38
2023-04-28T09:26:01.078Z,100170.41
2023-04-28T09:31:05.145Z,100176.34
2023-04-28T09:36:10.770Z,100175.00
2023-04-28T09:41:14.101Z,100172.38
2023-04-28T09:46:30.574Z,100172.53
2023-04-28T09:51:35.899Z,100167.59
2023-04-28T09:56:41.391Z,100177.00
2023-04-28T10:01:46.881Z,100177.84
2023-04-28T10:06:52.271Z,100168.75
2023-04-28T10:11:56.156Z,100171.06
2023-04-28T10:17:00.953Z,100164.31
2023-04-28T10:22:22.772Z,100161.31
2023-04-28T10:27:32.117Z,100145.16
2023-04-28T10:32:35.376Z,100150.94
2023-04-28T10:38:10.450Z,100132.50
2023-04-28T10:43:15.153Z,100126.72
2023-04-28T10:48:18.461Z,100129.19
2023-04-28T10:53:23.430Z,100117.16
2023-04-28T10:58:42.303Z,100118.97
2023-04-28T11:03:51.972Z,100119.13
2023-04-28T11:09:00.693Z,100117.50
2023-04-28T11:14:32.896Z,100118.97
2023-04-28T11:19:38.223Z,100120.94
2023-04-28T11:24:56.471Z,100109.09
2023-04-28T11:30:02.343Z,100105.28
2023-04-28T11:35:10.139Z,100105.13
2023-04-28T11:40:19.438Z,100101.84
2023-04-28T11:45:23.148Z,100092.31
2023-04-28T11:50:37.342Z,100080.59
2023-04-28T11:55:42.475Z,100081.44
2023-04-28T12:00:47.555Z,100070.88
2023-04-28T12:05:51.731Z,100059.31
2023-04-28T12:16:39.467Z,100048.78
2023-04-28T12:21:44.016Z,100045.22
2023-04-28T12:26:48.206Z,100040.06
2023-04-28T12:31:54.161Z,100029.78
2023-04-28T12:36:57.868Z,100031.19
2023-04-28T12:42:03.092Z,100027.41
2023-04-28T12:47:09.323Z,100028.69
2023-04-28T12:52:12.784Z,100027.16
2023-04-28T12:57:17.015Z,100021.22
2023-04-28T13:02:22.038Z,100022.59
2023-04-28T13:07:26.756Z,100008.88
2023-04-28T13:12:30.374Z,100008.66
2023-04-28T13:17:35.520Z,99991.31
2023-04-28T13:22:38.899Z,99989.03
2023-04-28T13:27:43.489Z,99973.47
2023-04-28T13:32:48.581Z,99974.56
2023-04-28T13:37:56.782Z,99968.00
2023-04-28T13:43:00.715Z,99959.03
2023-04-28T13:48:06.038Z,99953.94
2023-04-28T13:53:09.331Z,99953.53
2023-04-28T13:58:12.573Z,99958.63
2023-04-28T14:03:17.431Z,99945.97
2023-04-28T14:08:23.255Z,99942.22
2023-04-28T14:13:27.100Z,99935.63
2023-04-28T14:18:33.853Z,99930.34
2023-04-28T14:23:37.954Z,99930.00
2023-04-28T14:28:45.068Z,99931.22
2023-04-28T14:33:50.150Z,99924.72
2023-04-28T14:38:53.514Z,99915.25
2023-04-28T14:43:56.882Z,99912.53
2023-04-28T14:49:02.656Z,99906.75
2023-04-28T14:54:06.577Z,99911.94
2023-04-28T14:59:10.506Z,99898.56
2023-04-28T15:04:16.954Z,99904.75
2023-04-28T15:09:20.629Z,99901.22
2023-04-28T15:14:23.790Z,99890.81
2023-04-28T15:19:28.412Z,99887.84
2023-04-28T15:24:35.775Z,99885.66
2023-04-28T15:29:39.554Z,99883.56
2023-04-28T15:34:44.511Z,99880.19
2023-04-28T15:39:47.848Z,99867.84
2023-04-28T15:44:51.590Z,99857.81
2023-04-28T15:49:56.546Z,99861.47
2023-04-28T15:55:00.985Z,99855.41
2023-04-28T16:00:04.803Z,99854.00
2023-04-28T16:05:20.107Z,99853.81
2023-04-28T16:10:23.412Z,99854.19
2023-04-28T16:15:26.998Z,99851.13
2023-04-28T16:20:31.739Z,99847.22
2023-04-28T16:25:35.439Z,99853.47
2023-04-28T16:30:38.868Z,99851.50
2023-04-28T16:35:44.783Z,99848.59
2023-04-28T16:40:47.978Z,99837.94
2023-04-28T16:45:51.157Z,99840.03
2023-04-28T16:50:56.865Z,99842.50
2023-04-28T16:55:59.967Z,99840.38
2023-04-28T17:01:06.795Z,99836.94
2023-04-28T17:06:12.454Z,99831.69
2023-04-28T17:11:18.908Z,99834.69
2023-04-28T17:16:22.416Z,99825.16
2023-04-28T17:21:29.298Z,99832.25
2023-04-28T17:26:33.763Z,99821.06
2023-04-28T17:31:38.939Z,99821.22
2023-04-28T17:36:44.460Z,99817.66
2023-04-28T17:41:47.804Z,99830.84
2023-04-28T17:46:52.231Z,99821.94
2023-04-28T17:52:02.446Z,99829.75
2023-04-28T17:57:06.172Z,99822.66
2023-04-28T18:02:11.290Z,99824.66
2023-04-28T18:07:16.586Z,99813.94
2023-04-28T18:12:19.874Z,99821.38
2023-04-28T18:17:23.387Z,99814.31
2023-04-28T18:22:28.134Z,99820.56
2023-04-28T18:27:34.308Z,99821.09
2023-04-28T18:32:37.733Z,99813.00
2023-04-28T18:37:46.166Z,99807.09
2023-04-28T18:42:49.796Z,99798.53
2023-04-28T18:47:53.081Z,99805.81
2023-04-28T18:52:57.889Z,99809.59
2023-04-28T18:58:02.382Z,99812.41
2023-04-28T19:03:05.910Z,99815.19
2023-04-28T19:08:12.006Z,99815.84
2023-04-28T19:13:15.465Z,99810.94
2023-04-28T19:18:19.479Z,99812.56
2023-04-28T19:23:24.365Z,99820.13
2023-04-28T19:28:29.297Z,99816.53
2023-04-28T19:33:32.954Z,99815.38
2023-04-28T19:38:40.457Z,99804.50
2023-04-28T19:43:44.277Z,99804.50
2023-04-28T19:48:47.762Z,99799.91
2023-04-28T19:53:52.640Z,99800.25
2023-04-28T19:58:55.980Z,99790.88
2023-04-28T20:04:00.583Z,99788.59
2023-04-28T20:09:06.045Z,99775.13
2023-04-28T20:14:09.768Z,99770.88
2023-04-28T20:19:12.907Z,99779.75
2023-04-28T20:24:17.494Z,99780.72
2023-04-28T20:29:20.813Z,99798.00
2023-04-28T20:34:24.091Z,99800.13
2023-04-28T20:39:29.516Z,99795.53
2023-04-28T20:44:32.861Z,99802.44
2023-04-28T20:49:36.561Z,99809.16
2023-04-28T20:54:43.627Z,99810.66
2023-04-28T20:59:46.867Z,99805.22
2023-04-28T21:04:50.304Z,99802.91
2023-04-28T21:09:54.902Z,99794.72
2023-04-28T21:14:59.642Z,99790.91
2023-04-28T21:20:03.601Z,99790.94
2023-04-28T21:25:09.569Z,99792.72
2023-04-28T21:30:14.762Z,99790.75
2023-04-28T21:35:18.227Z,99789.09
2023-04-28T21:40:23.121Z,99775.94
2023-04-28T21:45:26.668Z,99767.41
2023-04-28T21:50:29.944Z,99774.13
2023-04-28T21:55:34.540Z,99778.41
2023-04-28T22:00:40.978Z,99782.66
2023-04-28T22:05:45.474Z,99776.88
2023-04-28T22:10:50.086Z,99781.44
2023-04-28T22:15:53.838Z,99767.66
2023-04-28T22:20:57.116Z,99774.38
2023-04-28T22:26:01.895Z,99786.22
2023-04-28T22:31:05.219Z,99773.75
2023-04-28T22:36:09.028Z,99781.97
2023-04-28T22:41:13.617Z,99778.97
2023-04-28T22:46:16.752Z,99768.09
2023-04-28T22:51:20.429Z,99768.09
2023-04-28T22:56:24.940Z,99763.00
2023-04-28T23:01:28.209Z,99766.94
2023-04-28T23:06:32.211Z,99762.97
2023-04-28T23:11:36.735Z,99763.94
2023-04-28T23:16:40.192Z,99748.72
2023-04-28T23:21:43.346Z,99755.94
2023-04-28T23:26:48.078Z,99753.00
2023-04-28T23:31:54.684Z,99755.47
2023-04-28T23:36:58.421Z,99738.72
2023-04-28T23:42:03.106Z,99733.94
2023-04-28T23:47:06.770Z,99745.44
2023-04-28T23:52:09.971Z,99741.53
2023-04-28T23:57:14.511Z,99742.16
